PWSweather.com
Personal Weather Stations
Station Observations
01979
Ravne Pri CerknemSI 5282

Ravne Pri CerknemSI 5282

Lat: 46.1213916, Lon: 13.952774299999987

Elevation: 2244.094488

Station Type: Techo Line WS2307

www.vremenska.postaja.andre.si/

High Low Average
Temperature 34.3°F1.3°C 20.5°F-6.4°C 27.0°F-2.8°C
Dew Point 23.8°F-4.6°C 15.9°F-8.9°C 19.5°F-6.9°C
Winds 8.4 mph 13.5 kmh Calm Calm 1.0 mph E1.6 kmh E
Wind Gusts 12.3 mph19.8 kmh -- 3.0 mph4.8 kmh
Humidity 86% 57% 74%
Pressure 30.27 in1025.1 mb 30.11 in1019.6 mb -
Precipitation 0.00 in0.0 mm - -
Hour Temp Dew Point Humidity Winds Wind Gusts Pressure Precip Precip Rate Daily Precip Total
12:00 AM 25.0°F-3.9°C 18.5°F-7.5°C 76% Calm Calm -- 30.11 in1019.6 mb 0.00 in0.0 mm 0.00 in0.0 mm 0.00 in0.0 mm
12:10 AM 25.5°F-3.6°C 19.0°F-7.2°C 76% 0.5 mph ESE0.8 kmh ESE 1.8 mph2.9 kmh 30.12 in1020.0 mb 0.00 in0.0 mm 0.00 in0.0 mm 0.00 in0.0 mm
12:20 AM 25.7°F-3.5°C 19.2°F-7.1°C 76% 0.9 mph ESE1.4 kmh ESE 2.9 mph4.7 kmh 30.11 in1019.6 mb 0.00 in0.0 mm 0.00 in0.0 mm 0.00 in0.0 mm
12:30 AM 26.1°F-3.3°C 19.5°F-6.9°C 76% 2.4 mph ESE3.9 kmh ESE 5.4 mph8.7 kmh 30.12 in1020.0 mb 0.00 in0.0 mm 0.00 in0.0 mm 0.00 in0.0 mm
12:40 AM 25.5°F-3.6°C 19.3°F-7.1°C 77% 0.5 mph ESE0.8 kmh ESE 2.9 mph4.7 kmh 30.11 in1019.6 mb 0.00 in0.0 mm 0.00 in0.0 mm 0.00 in0.0 mm
12:50 AM 25.3°F-3.7°C 19.1°F-7.2°C 77% 1.5 mph ESE2.4 kmh ESE 2.7 mph4.3 kmh 30.11 in1019.6 mb 0.00 in0.0 mm 0.00 in0.0 mm 0.00 in0.0 mm
01:00 AM 25.0°F-3.9°C 18.8°F-7.3°C 77% 0.9 mph ESE1.4 kmh ESE 3.1 mph5.0 kmh 30.11 in1019.6 mb 0.00 in0.0 mm 0.00 in0.0 mm 0.00 in0.0 mm
01:10 AM 24.6°F-4.1°C 18.1°F-7.7°C 76% 0.5 mph ESE0.8 kmh ESE 2.5 mph4.0 kmh 30.12 in1020.0 mb 0.00 in0.0 mm 0.00 in0.0 mm 0.00 in0.0 mm
01:20 AM 24.4°F-4.2°C 18.3°F-7.6°C 77% Calm Calm -- 30.12 in1020.0 mb 0.00 in0.0 mm 0.00 in0.0 mm 0.00 in0.0 mm
01:30 AM 24.6°F-4.1°C 18.4°F-7.6°C 77% 1.7 mph SE2.7 kmh SE 3.1 mph5.0 kmh 30.12 in1020.0 mb 0.00 in0.0 mm 0.00 in0.0 mm 0.00 in0.0 mm
01:40 AM 24.1°F-4.4°C 17.9°F-7.8°C 77% 0.6 mph ESE1.0 kmh ESE 2.0 mph3.2 kmh 30.12 in1020.0 mb 0.00 in0.0 mm 0.00 in0.0 mm 0.00 in0.0 mm
01:50 AM 23.5°F-4.7°C 17.4°F-8.1°C 77% 0.3 mph ESE0.5 kmh ESE 1.3 mph2.1 kmh 30.12 in1020.0 mb 0.00 in0.0 mm 0.00 in0.0 mm 0.00 in0.0 mm
02:00 AM 23.4°F-4.8°C 17.2°F-8.2°C 77% 0.9 mph ESE1.4 kmh ESE 3.1 mph5.0 kmh 30.12 in1020.0 mb 0.00 in0.0 mm 0.00 in0.0 mm 0.00 in0.0 mm
02:10 AM 23.5°F-4.7°C 17.4°F-8.1°C 77% 0.7 mph ESE1.1 kmh ESE 3.1 mph5.0 kmh 30.12 in1020.0 mb 0.00 in0.0 mm 0.00 in0.0 mm 0.00 in0.0 mm
02:20 AM 23.5°F-4.7°C 17.7°F-7.9°C 78% Calm Calm -- 30.12 in1020.0 mb 0.00 in0.0 mm 0.00 in0.0 mm 0.00 in0.0 mm
02:30 AM 23.4°F-4.8°C 17.5°F-8.1°C 78% Calm Calm -- 30.11 in1019.6 mb 0.00 in0.0 mm 0.00 in0.0 mm 0.00 in0.0 mm
02:40 AM 23.2°F-4.9°C 17.6°F-8.0°C 79% Calm Calm -- 30.12 in1020.0 mb 0.00 in0.0 mm 0.00 in0.0 mm 0.00 in0.0 mm
02:50 AM 23.4°F-4.8°C 17.8°F-7.9°C 79% Calm Calm -- 30.12 in1020.0 mb 0.00 in0.0 mm 0.00 in0.0 mm 0.00 in0.0 mm
03:00 AM 23.5°F-4.7°C 18.3°F-7.6°C 80% Calm Calm -- 30.12 in1020.0 mb 0.00 in0.0 mm 0.00 in0.0 mm 0.00 in0.0 mm
03:02 AM 23.2°F-4.9°C 17.3°F-8.2°C 78% Calm Calm -- 30.11 in1019.6 mb 0.00 in0.0 mm 0.00 in0.0 mm 0.00 in0.0 mm
03:10 AM 23.2°F-4.9°C 18.2°F-7.7°C 81% 0.8 mph ESE1.3 kmh ESE 2.9 mph4.7 kmh 30.12 in1020.0 mb 0.00 in0.0 mm 0.00 in0.0 mm 0.00 in0.0 mm
03:20 AM 22.8°F-5.1°C 18.1°F-7.7°C 82% 0.1 mph ESE0.2 kmh ESE 3.1 mph5.0 kmh 30.12 in1020.0 mb 0.00 in0.0 mm 0.00 in0.0 mm 0.00 in0.0 mm
03:30 AM 23.2°F-4.9°C 18.2°F-7.7°C 81% 4.1 mph E6.6 kmh E 5.4 mph8.7 kmh 30.12 in1020.0 mb 0.00 in0.0 mm 0.00 in0.0 mm 0.00 in0.0 mm
03:40 AM 23.5°F-4.7°C 18.3°F-7.6°C 80% 2.1 mph ENE3.4 kmh ENE 5.1 mph8.2 kmh 30.13 in1020.3 mb 0.00 in0.0 mm 0.00 in0.0 mm 0.00 in0.0 mm
03:50 AM 22.8°F-5.1°C 17.6°F-8.0°C 80% Calm Calm -- 30.13 in1020.3 mb 0.00 in0.0 mm 0.00 in0.0 mm 0.00 in0.0 mm
04:00 AM 23.2°F-4.9°C 18.5°F-7.5°C 82% 1.7 mph ESE2.7 kmh ESE 4.3 mph6.9 kmh 30.12 in1020.0 mb 0.00 in0.0 mm 0.00 in0.0 mm 0.00 in0.0 mm
04:10 AM 22.8°F-5.1°C 18.1°F-7.7°C 82% 1.4 mph SE2.3 kmh SE 3.4 mph5.5 kmh 30.12 in1020.0 mb 0.00 in0.0 mm 0.00 in0.0 mm 0.00 in0.0 mm
04:20 AM 22.8°F-5.1°C 18.4°F-7.6°C 83% 0.3 mph SE0.5 kmh SE 1.1 mph1.8 kmh 30.13 in1020.3 mb 0.00 in0.0 mm 0.00 in0.0 mm 0.00 in0.0 mm
04:30 AM 22.8°F-5.1°C 18.4°F-7.6°C 83% Calm Calm -- 30.13 in1020.3 mb 0.00 in0.0 mm 0.00 in0.0 mm 0.00 in0.0 mm
04:40 AM 21.9°F-5.6°C 17.0°F-8.3°C 81% Calm Calm -- 30.13 in1020.3 mb 0.00 in0.0 mm 0.00 in0.0 mm 0.00 in0.0 mm
04:50 AM 21.6°F-5.8°C 16.9°F-8.4°C 82% Calm Calm -- 30.13 in1020.3 mb 0.00 in0.0 mm 0.00 in0.0 mm 0.00 in0.0 mm
05:00 AM 21.9°F-5.6°C 17.0°F-8.3°C 81% Calm Calm -- 30.14 in1020.7 mb 0.00 in0.0 mm 0.00 in0.0 mm 0.00 in0.0 mm
05:10 AM 22.3°F-5.4°C 17.6°F-8.0°C 82% Calm Calm -- 30.14 in1020.7 mb 0.00 in0.0 mm 0.00 in0.0 mm 0.00 in0.0 mm
05:20 AM 21.9°F-5.6°C 17.0°F-8.3°C 81% 0.2 mph E0.3 kmh E 1.1 mph1.8 kmh 30.14 in1020.7 mb 0.00 in0.0 mm 0.00 in0.0 mm 0.00 in0.0 mm
05:30 AM 21.6°F-5.8°C 16.6°F-8.6°C 81% Calm Calm -- 30.14 in1020.7 mb 0.00 in0.0 mm 0.00 in0.0 mm 0.00 in0.0 mm
05:40 AM 21.4°F-5.9°C 16.7°F-8.5°C 82% Calm Calm -- 30.14 in1020.7 mb 0.00 in0.0 mm 0.00 in0.0 mm 0.00 in0.0 mm
05:50 AM 20.5°F-6.4°C 15.9°F-8.9°C 82% 1.0 mph E1.6 kmh E 2.5 mph4.0 kmh 30.15 in1021.0 mb 0.00 in0.0 mm 0.00 in0.0 mm 0.00 in0.0 mm
06:00 AM 21.7°F-5.7°C 17.4°F-8.1°C 83% Calm Calm -- 30.15 in1021.0 mb 0.00 in0.0 mm 0.00 in0.0 mm 0.00 in0.0 mm
06:10 AM 21.0°F-6.1°C 16.4°F-8.7°C 82% 0.6 mph ESE1.0 kmh ESE 2.7 mph4.3 kmh 30.15 in1021.0 mb 0.00 in0.0 mm 0.00 in0.0 mm 0.00 in0.0 mm
06:20 AM 21.4°F-5.9°C 16.7°F-8.5°C 82% 2.4 mph ESE3.9 kmh ESE 3.8 mph6.1 kmh 30.15 in1021.0 mb 0.00 in0.0 mm 0.00 in0.0 mm 0.00 in0.0 mm
06:30 AM 21.4°F-5.9°C 16.7°F-8.5°C 82% Calm Calm -- 30.16 in1021.3 mb 0.00 in0.0 mm 0.00 in0.0 mm 0.00 in0.0 mm
06:40 AM 21.0°F-6.1°C 16.4°F-8.7°C 82% 0.2 mph ESE0.3 kmh ESE 0.9 mph1.4 kmh 30.16 in1021.3 mb 0.00 in0.0 mm 0.00 in0.0 mm 0.00 in0.0 mm
06:50 AM 21.4°F-5.9°C 16.7°F-8.5°C 82% 0.2 mph ESE0.3 kmh ESE 1.1 mph1.8 kmh 30.16 in1021.3 mb 0.00 in0.0 mm 0.00 in0.0 mm 0.00 in0.0 mm
07:00 AM 20.8°F-6.2°C 16.2°F-8.8°C 82% Calm Calm -- 30.16 in1021.3 mb 0.00 in0.0 mm 0.00 in0.0 mm 0.00 in0.0 mm
07:10 AM 20.8°F-6.2°C 16.5°F-8.6°C 83% Calm Calm -- 30.17 in1021.7 mb 0.00 in0.0 mm 0.00 in0.0 mm 0.00 in0.0 mm
07:20 AM 21.0°F-6.1°C 16.7°F-8.5°C 83% Calm Calm -- 30.18 in1022.0 mb 0.00 in0.0 mm 0.00 in0.0 mm 0.00 in0.0 mm
07:30 AM 21.0°F-6.1°C 16.7°F-8.5°C 83% Calm Calm -- 30.18 in1022.0 mb 0.00 in0.0 mm 0.00 in0.0 mm 0.00 in0.0 mm
07:40 AM 21.4°F-5.9°C 17.3°F-8.2°C 84% Calm Calm -- 30.18 in1022.0 mb 0.00 in0.0 mm 0.00 in0.0 mm 0.00 in0.0 mm
07:50 AM 21.4°F-5.9°C 17.3°F-8.2°C 84% Calm Calm -- 30.19 in1022.4 mb 0.00 in0.0 mm 0.00 in0.0 mm 0.00 in0.0 mm
08:00 AM 22.1°F-5.5°C 18.3°F-7.6°C 85% 2.8 mph E4.5 kmh E 5.4 mph8.7 kmh 30.19 in1022.4 mb 0.00 in0.0 mm 0.00 in0.0 mm 0.00 in0.0 mm
08:10 AM 22.3°F-5.4°C 18.5°F-7.5°C 85% 1.5 mph ESE2.4 kmh ESE 2.5 mph4.0 kmh 30.19 in1022.4 mb 0.00 in0.0 mm 0.00 in0.0 mm 0.00 in0.0 mm
08:20 AM 22.8°F-5.1°C 19.0°F-7.2°C 85% 1.2 mph ESE1.9 kmh ESE 3.6 mph5.8 kmh 30.19 in1022.4 mb 0.00 in0.0 mm 0.00 in0.0 mm 0.00 in0.0 mm
08:30 AM 23.2°F-4.9°C 19.6°F-6.9°C 86% 2.6 mph ESE4.2 kmh ESE 4.3 mph6.9 kmh 30.19 in1022.4 mb 0.00 in0.0 mm 0.00 in0.0 mm 0.00 in0.0 mm
08:40 AM 24.1°F-4.4°C 19.9°F-6.7°C 84% 0.2 mph ESE0.3 kmh ESE 1.1 mph1.8 kmh 30.20 in1022.7 mb 0.00 in0.0 mm 0.00 in0.0 mm 0.00 in0.0 mm
08:50 AM 25.0°F-3.9°C 20.0°F-6.7°C 81% Calm Calm -- 30.20 in1022.7 mb 0.00 in0.0 mm 0.00 in0.0 mm 0.00 in0.0 mm
09:00 AM 25.2°F-3.8°C 19.6°F-6.9°C 79% Calm Calm -- 30.20 in1022.7 mb 0.00 in0.0 mm 0.00 in0.0 mm 0.00 in0.0 mm
09:10 AM 25.9°F-3.4°C 20.3°F-6.5°C 79% Calm Calm -- 30.21 in1023.0 mb 0.00 in0.0 mm 0.00 in0.0 mm 0.00 in0.0 mm
09:20 AM 25.7°F-3.5°C 20.4°F-6.4°C 80% 0.6 mph SE1.0 kmh SE 2.7 mph4.3 kmh 30.21 in1023.0 mb 0.00 in0.0 mm 0.00 in0.0 mm 0.00 in0.0 mm
09:30 AM 25.7°F-3.5°C 20.7°F-6.3°C 81% Calm Calm -- 30.21 in1023.0 mb 0.00 in0.0 mm 0.00 in0.0 mm 0.00 in0.0 mm
09:40 AM 26.2°F-3.2°C 20.3°F-6.5°C 78% Calm Calm -- 30.22 in1023.4 mb 0.00 in0.0 mm 0.00 in0.0 mm 0.00 in0.0 mm
09:50 AM 26.6°F-3.0°C 20.4°F-6.4°C 77% Calm Calm -- 30.22 in1023.4 mb 0.00 in0.0 mm 0.00 in0.0 mm 0.00 in0.0 mm
10:00 AM 28.8°F-1.8°C 22.1°F-5.5°C 76% Calm Calm -- 30.22 in1023.4 mb 0.00 in0.0 mm 0.00 in0.0 mm 0.00 in0.0 mm
10:10 AM 28.2°F-2.1°C 21.6°F-5.8°C 76% Calm Calm -- 30.22 in1023.4 mb 0.00 in0.0 mm 0.00 in0.0 mm 0.00 in0.0 mm
10:20 AM 29.1°F-1.6°C 22.5°F-5.3°C 76% Calm Calm -- 30.23 in1023.7 mb 0.00 in0.0 mm 0.00 in0.0 mm 0.00 in0.0 mm
10:30 AM 30.6°F-0.8°C 22.9°F-5.1°C 73% Calm Calm -- 30.23 in1023.7 mb 0.00 in0.0 mm 0.00 in0.0 mm 0.00 in0.0 mm
10:40 AM 30.9°F-0.6°C 23.0°F-5.0°C 72% 0.4 mph SE0.6 kmh SE 3.1 mph5.0 kmh 30.22 in1023.4 mb 0.00 in0.0 mm 0.00 in0.0 mm 0.00 in0.0 mm
10:50 AM 31.3°F-0.4°C 23.3°F-4.8°C 72% 0.7 mph SE1.1 kmh SE 3.1 mph5.0 kmh 30.23 in1023.7 mb 0.00 in0.0 mm 0.00 in0.0 mm 0.00 in0.0 mm
11:00 AM 31.6°F-0.2°C 23.6°F-4.7°C 72% Calm Calm -- 30.23 in1023.7 mb 0.00 in0.0 mm 0.00 in0.0 mm 0.00 in0.0 mm
11:10 AM 31.8°F-0.1°C 23.8°F-4.6°C 72% Calm Calm -- 30.23 in1023.7 mb 0.00 in0.0 mm 0.00 in0.0 mm 0.00 in0.0 mm
11:20 AM 31.8°F-0.1°C 22.8°F-5.1°C 69% 0.5 mph SSE0.8 kmh SSE 1.3 mph2.1 kmh 30.23 in1023.7 mb 0.00 in0.0 mm 0.00 in0.0 mm 0.00 in0.0 mm
11:30 AM 32.2°F0.1°C 23.1°F-4.9°C 69% 0.7 mph S1.1 kmh S 3.4 mph5.5 kmh 30.23 in1023.7 mb 0.00 in0.0 mm 0.00 in0.0 mm 0.00 in0.0 mm
11:40 AM 31.6°F-0.2°C 22.3°F-5.4°C 68% 3.8 mph SSE6.1 kmh SSE 7.2 mph11.6 kmh 30.22 in1023.4 mb 0.00 in0.0 mm 0.00 in0.0 mm 0.00 in0.0 mm
11:50 AM 31.6°F-0.2°C 22.3°F-5.4°C 68% 5.1 mph SE8.2 kmh SE 7.6 mph12.2 kmh 30.23 in1023.7 mb 0.00 in0.0 mm 0.00 in0.0 mm 0.00 in0.0 mm
12:00 PM 31.8°F-0.1°C 21.7°F-5.7°C 66% 4.7 mph SSE7.6 kmh SSE 8.3 mph13.4 kmh 30.23 in1023.7 mb 0.00 in0.0 mm 0.00 in0.0 mm 0.00 in0.0 mm
12:10 PM 32.2°F0.1°C 21.7°F-5.7°C 65% 8.4 mph S13.5 kmh S 10.7 mph17.2 kmh 30.22 in1023.4 mb 0.00 in0.0 mm 0.00 in0.0 mm 0.00 in0.0 mm
12:20 PM 32.2°F0.1°C 21.4°F-5.9°C 64% 7.5 mph S12.1 kmh S 10.5 mph16.9 kmh 30.22 in1023.4 mb 0.00 in0.0 mm 0.00 in0.0 mm 0.00 in0.0 mm
12:30 PM 32.2°F0.1°C 21.4°F-5.9°C 64% 5.4 mph SSE8.7 kmh SSE 6.5 mph10.5 kmh 30.22 in1023.4 mb 0.00 in0.0 mm 0.00 in0.0 mm 0.00 in0.0 mm
12:40 PM 32.7°F0.4°C 21.9°F-5.6°C 64% 5.2 mph S8.4 kmh S 10.3 mph16.6 kmh 30.22 in1023.4 mb 0.00 in0.0 mm 0.00 in0.0 mm 0.00 in0.0 mm
12:50 PM 32.9°F0.5°C 21.7°F-5.7°C 63% 4.7 mph SSE7.6 kmh SSE 10.3 mph16.6 kmh 30.22 in1023.4 mb 0.00 in0.0 mm 0.00 in0.0 mm 0.00 in0.0 mm
01:00 PM 32.7°F0.4°C 21.5°F-5.8°C 63% 5.3 mph SSE8.5 kmh SSE 11.4 mph18.3 kmh 30.22 in1023.4 mb 0.00 in0.0 mm 0.00 in0.0 mm 0.00 in0.0 mm
01:10 PM 32.9°F0.5°C 21.7°F-5.7°C 63% 5.1 mph SSE8.2 kmh SSE 8.7 mph14.0 kmh 30.21 in1023.0 mb 0.00 in0.0 mm 0.00 in0.0 mm 0.00 in0.0 mm
01:20 PM 33.3°F0.7°C 22.0°F-5.6°C 63% 6.2 mph SSE10.0 kmh SSE 12.3 mph19.8 kmh 30.21 in1023.0 mb 0.00 in0.0 mm 0.00 in0.0 mm 0.00 in0.0 mm
01:30 PM 33.6°F0.9°C 21.6°F-5.8°C 61% 3.3 mph S5.3 kmh S 12.3 mph19.8 kmh 30.22 in1023.4 mb 0.00 in0.0 mm 0.00 in0.0 mm 0.00 in0.0 mm
01:40 PM 33.1°F0.6°C 21.1°F-6.1°C 61% 8.3 mph S13.4 kmh S 10.1 mph16.3 kmh 30.21 in1023.0 mb 0.00 in0.0 mm 0.00 in0.0 mm 0.00 in0.0 mm
01:50 PM 33.6°F0.9°C 21.6°F-5.8°C 61% 3.7 mph S6.0 kmh S 7.4 mph11.9 kmh 30.21 in1023.0 mb 0.00 in0.0 mm 0.00 in0.0 mm 0.00 in0.0 mm
02:00 PM 33.6°F0.9°C 21.2°F-6.0°C 60% 2.7 mph SSE4.3 kmh SSE 4.0 mph6.4 kmh 30.20 in1022.7 mb 0.00 in0.0 mm 0.00 in0.0 mm 0.00 in0.0 mm
02:10 PM 33.3°F0.7°C 20.9°F-6.2°C 60% 4.8 mph S7.7 kmh S 6.9 mph11.1 kmh 30.20 in1022.7 mb 0.00 in0.0 mm 0.00 in0.0 mm 0.00 in0.0 mm
02:20 PM 33.4°F0.8°C 21.0°F-6.1°C 60% 2.2 mph S3.5 kmh S 6.7 mph10.8 kmh 30.20 in1022.7 mb 0.00 in0.0 mm 0.00 in0.0 mm 0.00 in0.0 mm
02:30 PM 33.3°F0.7°C 20.9°F-6.2°C 60% 0.3 mph SSE0.5 kmh SSE 1.3 mph2.1 kmh 30.20 in1022.7 mb 0.00 in0.0 mm 0.00 in0.0 mm 0.00 in0.0 mm
02:40 PM 32.9°F0.5°C 20.5°F-6.4°C 60% Calm Calm -- 30.20 in1022.7 mb 0.00 in0.0 mm 0.00 in0.0 mm 0.00 in0.0 mm
02:50 PM 33.1°F0.6°C 20.7°F-6.3°C 60% 0.3 mph SSE0.5 kmh SSE 3.4 mph5.5 kmh 30.20 in1022.7 mb 0.00 in0.0 mm 0.00 in0.0 mm 0.00 in0.0 mm
03:00 PM 34.3°F1.3°C 20.7°F-6.3°C 57% 0.5 mph SSE0.8 kmh SSE 3.4 mph5.5 kmh 30.21 in1023.0 mb 0.00 in0.0 mm 0.00 in0.0 mm 0.00 in0.0 mm
03:10 PM 34.2°F1.2°C 20.9°F-6.2°C 58% 1.7 mph SSE2.7 kmh SSE 2.9 mph4.7 kmh 30.20 in1022.7 mb 0.00 in0.0 mm 0.00 in0.0 mm 0.00 in0.0 mm
03:20 PM 33.4°F0.8°C 20.2°F-6.6°C 58% 0.8 mph SSE1.3 kmh SSE 3.8 mph6.1 kmh 30.21 in1023.0 mb 0.00 in0.0 mm 0.00 in0.0 mm 0.00 in0.0 mm
03:30 PM 33.4°F0.8°C 20.2°F-6.6°C 58% Calm Calm -- 30.20 in1022.7 mb 0.00 in0.0 mm 0.00 in0.0 mm 0.00 in0.0 mm
03:40 PM 33.6°F0.9°C 20.4°F-6.4°C 58% 0.3 mph S0.5 kmh S 1.6 mph2.6 kmh 30.21 in1023.0 mb 0.00 in0.0 mm 0.00 in0.0 mm 0.00 in0.0 mm
03:50 PM 33.6°F0.9°C 20.4°F-6.4°C 58% Calm Calm -- 30.20 in1022.7 mb 0.00 in0.0 mm 0.00 in0.0 mm 0.00 in0.0 mm
04:00 PM 34.2°F1.2°C 20.9°F-6.2°C 58% Calm Calm -- 30.21 in1023.0 mb 0.00 in0.0 mm 0.00 in0.0 mm 0.00 in0.0 mm
04:10 PM 34.0°F1.1°C 20.7°F-6.3°C 58% Calm Calm -- 30.21 in1023.0 mb 0.00 in0.0 mm 0.00 in0.0 mm 0.00 in0.0 mm
04:20 PM 34.2°F1.2°C 20.9°F-6.2°C 58% Calm Calm -- 30.21 in1023.0 mb 0.00 in0.0 mm 0.00 in0.0 mm 0.00 in0.0 mm
04:30 PM 32.5°F0.3°C 20.2°F-6.6°C 60% Calm Calm -- 30.20 in1022.7 mb 0.00 in0.0 mm 0.00 in0.0 mm 0.00 in0.0 mm
04:40 PM 32.2°F0.1°C 20.6°F-6.3°C 62% Calm Calm -- 30.21 in1023.0 mb 0.00 in0.0 mm 0.00 in0.0 mm 0.00 in0.0 mm
04:50 PM 32.4°F0.2°C 20.8°F-6.2°C 62% Calm Calm -- 30.21 in1023.0 mb 0.00 in0.0 mm 0.00 in0.0 mm 0.00 in0.0 mm
05:00 PM 32.5°F0.3°C 21.3°F-5.9°C 63% 0.2 mph SSE0.3 kmh SSE 1.1 mph1.8 kmh 30.21 in1023.0 mb 0.00 in0.0 mm 0.00 in0.0 mm 0.00 in0.0 mm
05:10 PM 32.5°F0.3°C 21.0°F-6.1°C 62% 0.3 mph SE0.5 kmh SE 1.6 mph2.6 kmh 30.20 in1022.7 mb 0.00 in0.0 mm 0.00 in0.0 mm 0.00 in0.0 mm
05:20 PM 30.9°F-0.6°C 20.2°F-6.6°C 64% 2.7 mph ESE4.3 kmh ESE 3.4 mph5.5 kmh 30.21 in1023.0 mb 0.00 in0.0 mm 0.00 in0.0 mm 0.00 in0.0 mm
05:30 PM 30.0°F-1.1°C 20.0°F-6.7°C 66% 2.1 mph SE3.4 kmh SE 6.7 mph10.8 kmh 30.21 in1023.0 mb 0.00 in0.0 mm 0.00 in0.0 mm 0.00 in0.0 mm
05:40 PM 29.5°F-1.4°C 19.9°F-6.7°C 67% 0.4 mph ESE0.6 kmh ESE 2.0 mph3.2 kmh 30.21 in1023.0 mb 0.00 in0.0 mm 0.00 in0.0 mm 0.00 in0.0 mm
05:50 PM 29.1°F-1.6°C 20.2°F-6.6°C 69% 2.6 mph ESE4.2 kmh ESE 5.1 mph8.2 kmh 30.21 in1023.0 mb 0.00 in0.0 mm 0.00 in0.0 mm 0.00 in0.0 mm
06:00 PM 28.9°F-1.7°C 20.4°F-6.4°C 70% 3.7 mph ESE6.0 kmh ESE 5.1 mph8.2 kmh 30.22 in1023.4 mb 0.00 in0.0 mm 0.00 in0.0 mm 0.00 in0.0 mm
06:10 PM 28.8°F-1.8°C 20.2°F-6.6°C 70% 4.0 mph SE6.4 kmh SE 4.5 mph7.2 kmh 30.22 in1023.4 mb 0.00 in0.0 mm 0.00 in0.0 mm 0.00 in0.0 mm
06:20 PM 28.6°F-1.9°C 20.0°F-6.7°C 70% 1.6 mph ESE2.6 kmh ESE 4.5 mph7.2 kmh 30.22 in1023.4 mb 0.00 in0.0 mm 0.00 in0.0 mm 0.00 in0.0 mm
06:30 PM 28.6°F-1.9°C 20.0°F-6.7°C 70% 3.0 mph E4.8 kmh E 6.3 mph10.1 kmh 30.22 in1023.4 mb 0.00 in0.0 mm 0.00 in0.0 mm 0.00 in0.0 mm
06:40 PM 28.2°F-2.1°C 20.0°F-6.7°C 71% 4.1 mph ESE6.6 kmh ESE 6.0 mph9.7 kmh 30.23 in1023.7 mb 0.00 in0.0 mm 0.00 in0.0 mm 0.00 in0.0 mm
06:50 PM 28.2°F-2.1°C 20.0°F-6.7°C 71% 1.5 mph ESE2.4 kmh ESE 5.1 mph8.2 kmh 30.23 in1023.7 mb 0.00 in0.0 mm 0.00 in0.0 mm 0.00 in0.0 mm
07:00 PM 28.0°F-2.2°C 19.8°F-6.8°C 71% 2.0 mph ESE3.2 kmh ESE 5.1 mph8.2 kmh 30.23 in1023.7 mb 0.00 in0.0 mm 0.00 in0.0 mm 0.00 in0.0 mm
07:10 PM 28.0°F-2.2°C 19.8°F-6.8°C 71% 2.2 mph ESE3.5 kmh ESE 4.0 mph6.4 kmh 30.22 in1023.4 mb 0.00 in0.0 mm 0.00 in0.0 mm 0.00 in0.0 mm
07:20 PM 27.7°F-2.4°C 19.8°F-6.8°C 72% 1.8 mph ESE2.9 kmh ESE 6.9 mph11.1 kmh 30.23 in1023.7 mb 0.00 in0.0 mm 0.00 in0.0 mm 0.00 in0.0 mm
07:30 PM 27.7°F-2.4°C 19.8°F-6.8°C 72% Calm Calm -- 30.23 in1023.7 mb 0.00 in0.0 mm 0.00 in0.0 mm 0.00 in0.0 mm
07:40 PM 27.5°F-2.5°C 20.0°F-6.7°C 73% Calm Calm -- 30.23 in1023.7 mb 0.00 in0.0 mm 0.00 in0.0 mm 0.00 in0.0 mm
07:50 PM 27.3°F-2.6°C 19.8°F-6.8°C 73% 0.7 mph SE1.1 kmh SE 3.4 mph5.5 kmh 30.23 in1023.7 mb 0.00 in0.0 mm 0.00 in0.0 mm 0.00 in0.0 mm
08:00 PM 27.0°F-2.8°C 19.8°F-6.8°C 74% Calm Calm -- 30.24 in1024.0 mb 0.00 in0.0 mm 0.00 in0.0 mm 0.00 in0.0 mm
08:10 PM 26.8°F-2.9°C 19.6°F-6.9°C 74% Calm Calm -- 30.24 in1024.0 mb 0.00 in0.0 mm 0.00 in0.0 mm 0.00 in0.0 mm
08:20 PM 26.6°F-3.0°C 19.7°F-6.8°C 75% Calm Calm -- 30.25 in1024.4 mb 0.00 in0.0 mm 0.00 in0.0 mm 0.00 in0.0 mm
08:30 PM 26.6°F-3.0°C 19.7°F-6.8°C 75% Calm Calm -- 30.25 in1024.4 mb 0.00 in0.0 mm 0.00 in0.0 mm 0.00 in0.0 mm
08:40 PM 26.1°F-3.3°C 19.5°F-6.9°C 76% 0.2 mph ESE0.3 kmh ESE 1.1 mph1.8 kmh 30.25 in1024.4 mb 0.00 in0.0 mm 0.00 in0.0 mm 0.00 in0.0 mm
08:50 PM 26.2°F-3.2°C 19.7°F-6.8°C 76% 2.4 mph ESE3.9 kmh ESE 5.8 mph9.3 kmh 30.24 in1024.0 mb 0.00 in0.0 mm 0.00 in0.0 mm 0.00 in0.0 mm
09:00 PM 26.2°F-3.2°C 20.0°F-6.7°C 77% 4.0 mph ESE6.4 kmh ESE 5.8 mph9.3 kmh 30.25 in1024.4 mb 0.00 in0.0 mm 0.00 in0.0 mm 0.00 in0.0 mm
09:10 PM 26.4°F-3.1°C 20.2°F-6.6°C 77% 3.5 mph ESE5.6 kmh ESE 4.5 mph7.2 kmh 30.24 in1024.0 mb 0.00 in0.0 mm 0.00 in0.0 mm 0.00 in0.0 mm
09:20 PM 26.2°F-3.2°C 20.0°F-6.7°C 77% 4.3 mph ESE6.9 kmh ESE 6.3 mph10.1 kmh 30.25 in1024.4 mb 0.00 in0.0 mm 0.00 in0.0 mm 0.00 in0.0 mm
09:30 PM 25.9°F-3.4°C 19.7°F-6.8°C 77% 3.9 mph E6.3 kmh E 4.7 mph7.6 kmh 30.24 in1024.0 mb 0.00 in0.0 mm 0.00 in0.0 mm 0.00 in0.0 mm
09:40 PM 25.9°F-3.4°C 19.7°F-6.8°C 77% 2.7 mph ESE4.3 kmh ESE 3.8 mph6.1 kmh 30.25 in1024.4 mb 0.00 in0.0 mm 0.00 in0.0 mm 0.00 in0.0 mm
09:50 PM 25.5°F-3.6°C 19.3°F-7.1°C 77% 3.7 mph ESE6.0 kmh ESE 3.8 mph6.1 kmh 30.24 in1024.0 mb 0.00 in0.0 mm 0.00 in0.0 mm 0.00 in0.0 mm
10:00 PM 25.5°F-3.6°C 19.6°F-6.9°C 78% 2.4 mph ESE3.9 kmh ESE 4.0 mph6.4 kmh 30.24 in1024.0 mb 0.00 in0.0 mm 0.00 in0.0 mm 0.00 in0.0 mm
10:10 PM 25.5°F-3.6°C 19.6°F-6.9°C 78% 3.9 mph ESE6.3 kmh ESE 5.6 mph9.0 kmh 30.25 in1024.4 mb 0.00 in0.0 mm 0.00 in0.0 mm 0.00 in0.0 mm
10:20 PM 25.3°F-3.7°C 19.4°F-7.0°C 78% 1.7 mph E2.7 kmh E 3.1 mph5.0 kmh 30.25 in1024.4 mb 0.00 in0.0 mm 0.00 in0.0 mm 0.00 in0.0 mm
10:30 PM 25.0°F-3.9°C 19.1°F-7.2°C 78% Calm Calm -- 30.25 in1024.4 mb 0.00 in0.0 mm 0.00 in0.0 mm 0.00 in0.0 mm
10:40 PM 25.0°F-3.9°C 19.1°F-7.2°C 78% Calm Calm -- 30.26 in1024.7 mb 0.00 in0.0 mm 0.00 in0.0 mm 0.00 in0.0 mm
10:50 PM 25.2°F-3.8°C 19.3°F-7.1°C 78% Calm Calm -- 30.26 in1024.7 mb 0.00 in0.0 mm 0.00 in0.0 mm 0.00 in0.0 mm
11:00 PM 24.6°F-4.1°C 18.7°F-7.4°C 78% Calm Calm -- 30.27 in1025.1 mb 0.00 in0.0 mm 0.00 in0.0 mm 0.00 in0.0 mm
11:10 PM 24.4°F-4.2°C 18.9°F-7.3°C 79% 0.5 mph ESE0.8 kmh ESE 2.7 mph4.3 kmh 30.27 in1025.1 mb 0.00 in0.0 mm 0.00 in0.0 mm 0.00 in0.0 mm
11:20 PM 24.4°F-4.2°C 18.9°F-7.3°C 79% 1.6 mph ESE2.6 kmh ESE 5.4 mph8.7 kmh 30.26 in1024.7 mb 0.00 in0.0 mm 0.00 in0.0 mm 0.00 in0.0 mm
11:30 PM 24.4°F-4.2°C 18.9°F-7.3°C 79% 1.5 mph ESE2.4 kmh ESE 2.9 mph4.7 kmh 30.26 in1024.7 mb 0.00 in0.0 mm 0.00 in0.0 mm 0.00 in0.0 mm
11:40 PM 24.6°F-4.1°C 19.0°F-7.2°C 79% 0.5 mph ESE0.8 kmh ESE 2.9 mph4.7 kmh 30.27 in1025.1 mb 0.00 in0.0 mm 0.00 in0.0 mm 0.00 in0.0 mm
11:50 PM 24.6°F-4.1°C 19.0°F-7.2°C 79% 1.0 mph SE1.6 kmh SE 2.0 mph3.2 kmh 30.25 in1024.4 mb 0.00 in0.0 mm 0.00 in0.0 mm 0.00 in0.0 mm